This is the latest recevied weather packets stored in our database for station/object VK2KGV-15. If no packets are shown the sender has not sent any weather packets the latest 10 day(s).
| Time | Temp. | Humidity | Pressure | Rain* | Wind** | Luminosity | Snow |
|---|---|---|---|---|---|---|---|
| 1777549153 | 15.56° C | 66% | 1027.5 hPa | 0 mm | - | - | - |
| 1777544331 | 16.67° C | 60% | 1026.8 hPa | 0 mm | - | - | - |
| 1777540709 | 18.33° C | 55% | 1026.1 hPa | 0 mm | - | - | - |
| 1777538297 | 19.44° C | 51% | 1025.7 hPa | 0 mm | - | - | - |
| 1777534678 | 19.44° C | 43% | 1024.7 hPa | 0 mm | - | - | - |
| 1777534075 | 20° C | 41% | 1024.6 hPa | 0 mm | - | - | - |
| 1777533472 | 20.56° C | 40% | 1024.5 hPa | 0 mm | - | - | - |
| 1777532266 | 21.11° C | 40% | 1024.3 hPa | 0 mm | - | - | - |
| 1777530457 | 22.22° C | 40% | 1024.1 hPa | 0 mm | - | - | - |
| 1777529853 | 22.22° C | 40% | 1024 hPa | 0 mm | - | - | - |
| 1777528647 | 22.78° C | 39% | 1023.8 hPa | 0 mm | - | - | - |
| 1777526235 | 24.44° C | 35% | 1023.4 hPa | 0 mm | - | - | - |
| 1777525028 | 25° C | 33% | 1023.4 hPa | 0 mm | - | - | - |
| 1777523822 | 25° C | 32% | 1023.5 hPa | 0 mm | - | - | - |
| 1777522013 | 24.44° C | 32% | 1023.8 hPa | 0 mm | - | - | - |
| 1777520204 | 24.44° C | 30% | 1023.9 hPa | 0 mm | - | - | - |
| 1777515379 | 23.33° C | 35% | 1025.4 hPa | 0 mm | - | - | - |
| 1777511760 | 22.78° C | 38% | 1026.4 hPa | 0 mm | - | - | - |
| 1777510554 | 21.67° C | 42% | 1026.8 hPa | 0 mm | - | - | - |
| 1777509347 | 21.67° C | 43% | 1027.1 hPa | 0 mm | - | - | - |
| 1777508141 | 21.11° C | 46% | 1027.4 hPa | 0 mm | - | - | - |
| 1777505729 | 20.56° C | 51% | 1027.7 hPa | 0 mm | - | - | - |
| 1777500904 | 18.89° C | 58% | 1027.3 hPa | 0 mm | - | - | - |
| 1777499698 | 17.78° C | 61% | 1027.2 hPa | 0 mm | - | - | - |
| 1777498491 | 16.67° C | 67% | 1027.3 hPa | 0 mm | - | - | - |
* Rain since midnight (hover to see other rain measurements)
** Current wind speed in m/s (hover to see current wind gust speed)